Terminal Aerodrome Forecast
Issued by NWS

Home | Current Version | Previous Version | Text Only | Print | Product List | Glossary On
Versions: 1 2 3 4 5 6 7 8 9 10 11 12 13 14 15 16 17 18 19 20 21 22 23 24 25 26 27 28 29 30 31 32 33 34 35
965
FTUS44 KEWX 180738 AAB
TAFSSF
TAF AMD
KSSF 180738Z 1808/1906 00000KT 1SM BR OVC003
     FM180900 VRB03KT 1/2SM -DZ FG OVC001
     FM181800 09004KT 4SM BR OVC005
     FM182100 06004KT P6SM VCSH BKN010
     FM190200 07004KT 4SM BR VCSH OVC005=

USA.gov is the U.S. government's official web portal to all federal, state and local government web resources and services.